Time;durP1;ratioP1;P1;durP2;ratioP2;P2;SDS_P1;SDS_P2;PMS_P1;PMS_P2;Temp;Humidity;BMP_temperature;BMP_pressure;BME280_temperature;BME280_humidity;BME280_pressure;Samples;Min_cycle;Max_cycle;Signal;HPM_P1;HPM_P2
2021/10/20 00:00:30;;;;;;;8.75;5.05;;;;;;;8.07;100.00;99505.83;4328935;81;28473;-79
2021/10/20 00:06:33;;;;;;;8.10;5.00;;;;;;;8.08;100.00;99502.12;4328454;81;28514;-78
2021/10/20 00:12:35;;;;;;;9.40;5.53;;;;;;;8.06;100.00;99495.31;4323848;81;28471;-79
2021/10/20 00:18:37;;;;;;;9.45;5.28;;;;;;;8.15;100.00;99495.94;4306136;82;28467;-81
2021/10/20 00:24:38;;;;;;;10.70;5.92;;;;;;;8.30;100.00;99487.20;4307548;82;28495;-80
2021/10/20 00:30:39;;;;;;;8.75;4.47;;;;;;;8.29;100.00;99478.86;4332293;82;28502;-82
2021/10/20 00:36:40;;;;;;;8.75;4.00;;;;;;;8.36;100.00;99476.19;4324639;81;28508;-80
2021/10/20 00:42:44;;;;;;;7.12;4.08;;;;;;;8.37;100.00;99463.90;4309500;82;28466;-80
2021/10/20 00:48:46;;;;;;;8.20;4.40;;;;;;;8.50;100.00;99467.63;4308201;82;28513;-79
2021/10/20 00:54:50;;;;;;;9.25;4.83;;;;;;;8.63;100.00;99461.45;4328010;82;28447;-79
2021/10/20 01:00:52;;;;;;;9.13;4.67;;;;;;;8.73;100.00;99452.47;4289117;82;28452;-79
2021/10/20 01:06:53;;;;;;;9.50;4.83;;;;;;;8.82;100.00;99458.45;4383181;79;28473;-80
2021/10/20 01:12:55;;;;;;;9.75;3.80;;;;;;;8.90;100.00;99437.28;4425106;78;28473;-80
2021/10/20 01:18:57;;;;;;;7.60;4.15;;;;;;;8.88;100.00;99416.03;4429311;78;28450;-80
2021/10/20 01:25:00;;;;;;;6.15;3.45;;;;;;;9.07;100.00;99406.80;4409982;79;28452;-80
2021/10/20 01:31:01;;;;;;;6.03;2.70;;;;;;;9.26;100.00;99392.18;4391505;79;28523;-79
2021/10/20 01:37:04;;;;;;;5.05;2.60;;;;;;;9.41;100.00;99391.90;4393805;79;28580;-81
2021/10/20 01:43:06;;;;;;;5.85;2.35;;;;;;;9.57;100.00;99401.31;4397418;79;28499;-79
2021/10/20 01:49:08;;;;;;;4.35;2.15;;;;;;;9.79;100.00;99409.86;4384594;79;28492;-79
2021/10/20 01:55:16;;;;;;;5.00;2.20;;;;;;;9.95;100.00;99400.45;4401804;79;28471;-78
2021/10/20 02:01:17;;;;;;;4.08;2.12;;;;;;;9.98;100.00;99400.52;4376442;79;28506;-78
2021/10/20 02:07:19;;;;;;;3.55;2.00;;;;;;;9.99;100.00;99398.95;4386927;80;28459;-79
2021/10/20 02:13:20;;;;;;;5.90;3.35;;;;;;;9.92;100.00;99389.31;4374419;81;28501;-78
2021/10/20 02:19:22;;;;;;;6.80;3.20;;;;;;;9.92;100.00;99378.03;4348108;81;28502;-78
2021/10/20 02:25:24;;;;;;;6.42;3.30;;;;;;;9.94;100.00;99375.14;4340122;81;28543;-78
2021/10/20 02:31:26;;;;;;;7.67;4.22;;;;;;;9.89;100.00;99382.00;4327143;81;28514;-79
2021/10/20 02:37:27;;;;;;;7.90;3.70;;;;;;;9.89;100.00;99367.73;4365101;81;28523;-79
2021/10/20 02:43:28;;;;;;;5.22;2.55;;;;;;;9.81;100.00;99355.91;4361974;81;28495;-79
2021/10/20 02:49:30;;;;;;;5.62;2.05;;;;;;;9.72;100.00;99350.00;4354574;81;28503;-79
2021/10/20 02:55:31;;;;;;;4.25;2.62;;;;;;;9.80;100.00;99355.11;4354584;81;28433;-79
2021/10/20 03:01:32;;;;;;;3.90;2.00;;;;;;;9.88;100.00;99339.23;4331466;81;28463;-78
2021/10/20 03:07:34;;;;;;;5.30;2.17;;;;;;;9.93;100.00;99335.36;4372370;81;28482;-79
2021/10/20 03:13:36;;;;;;;5.17;2.50;;;;;;;10.04;100.00;99335.98;4375652;81;28465;-78
2021/10/20 03:19:37;;;;;;;3.65;1.75;;;;;;;10.14;100.00;99339.53;4341854;81;28454;-80
2021/10/20 03:25:38;;;;;;;2.72;1.85;;;;;;;10.29;100.00;99335.66;4351992;82;28515;-79
2021/10/20 03:31:40;;;;;;;3.25;2.12;;;;;;;10.31;100.00;99323.66;4341496;82;28456;-80
2021/10/20 03:37:42;;;;;;;5.10;2.37;;;;;;;10.43;100.00;99322.44;4312418;82;28467;-79
2021/10/20 03:43:43;;;;;;;4.20;2.15;;;;;;;10.47;100.00;99317.44;4367322;81;28876;-79
2021/10/20 03:49:46;;;;;;;3.98;2.30;;;;;;;10.52;100.00;99320.80;4354423;81;28484;-79
2021/10/20 03:55:47;;;;;;;3.95;1.90;;;;;;;10.53;100.00;99313.84;4337248;82;28459;-78
2021/10/20 04:01:48;;;;;;;2.72;1.95;;;;;;;10.53;100.00;99307.11;4358823;81;28464;-83
2021/10/20 04:07:51;;;;;;;4.25;2.02;;;;;;;10.59;100.00;99302.20;4364999;81;28479;-79
2021/10/20 04:13:52;;;;;;;5.03;2.35;;;;;;;10.52;100.00;99302.79;4323820;81;28503;-78
2021/10/20 04:19:55;;;;;;;4.28;2.30;;;;;;;10.53;100.00;99302.28;4353322;79;28542;-78
2021/10/20 04:25:56;;;;;;;4.62;2.12;;;;;;;10.55;100.00;99294.80;4371859;81;28495;-80
2021/10/20 04:31:58;;;;;;;3.22;2.00;;;;;;;10.38;100.00;99287.83;4391804;80;28477;-80
2021/10/20 04:38:01;;;;;;;5.10;1.98;;;;;;;10.29;100.00;99280.06;4443434;80;28469;-79
2021/10/20 04:44:02;;;;;;;4.40;2.20;;;;;;;10.35;100.00;99268.10;4401398;80;28454;-80
2021/10/20 04:50:07;;;;;;;4.97;2.25;;;;;;;10.49;100.00;99254.02;4433773;80;28494;-81
2021/10/20 04:56:08;;;;;;;4.60;2.67;;;;;;;10.46;100.00;99249.91;4456575;80;28492;-79
2021/10/20 05:02:09;;;;;;;3.95;2.40;;;;;;;10.50;100.00;99248.94;4432326;80;28459;-78
2021/10/20 05:08:11;;;;;;;8.80;3.83;;;;;;;10.51;100.00;99243.35;4436881;80;28481;-78
2021/10/20 05:14:12;;;;;;;7.47;3.02;;;;;;;10.72;100.00;99243.38;4435588;79;28485;-77
2021/10/20 05:20:18;;;;;;;6.17;3.25;;;;;;;10.98;100.00;99231.14;4433525;80;28477;-79
2021/10/20 05:26:20;;;;;;;6.60;3.00;;;;;;;11.03;100.00;99231.29;4381536;80;28502;-76
2021/10/20 05:32:21;;;;;;;9.75;3.20;;;;;;;11.11;100.00;99216.68;4441442;80;28451;-78
2021/10/20 05:38:22;;;;;;;8.10;3.33;;;;;;;11.20;100.00;99210.46;4464133;79;28483;-76
2021/10/20 05:44:23;;;;;;;6.28;3.10;;;;;;;11.43;100.00;99211.00;4409357;80;28472;-77
2021/10/20 05:50:25;;;;;;;7.42;3.22;;;;;;;11.60;100.00;99213.82;4435760;80;28474;-79
2021/10/20 05:56:26;;;;;;;10.82;4.33;;;;;;;11.73;100.00;99214.67;4410295;80;28470;-79
2021/10/20 06:02:27;;;;;;;9.13;3.80;;;;;;;11.93;100.00;99216.47;4409148;80;28465;-77
2021/10/20 06:08:29;;;;;;;10.23;3.98;;;;;;;12.15;100.00;99218.59;4404457;80;28489;-79
2021/10/20 06:14:31;;;;;;;7.42;3.83;;;;;;;12.34;100.00;99209.80;4364069;81;28477;-79
2021/10/20 06:20:34;;;;;;;10.32;4.20;;;;;;;12.68;100.00;99218.01;4371133;81;28468;-85
2021/10/20 06:26:36;;;;;;;7.58;3.75;;;;;;;13.02;100.00;99219.17;4353074;80;28510;-83
2021/10/20 06:32:39;;;;;;;5.22;3.20;;;;;;;13.16;100.00;99212.39;4360952;80;28451;-84
2021/10/20 06:38:40;;;;;;;6.03;2.75;;;;;;;13.45;100.00;99209.66;4358032;80;28486;-84
2021/10/20 06:44:42;;;;;;;4.47;2.70;;;;;;;13.93;100.00;99206.04;4356023;80;28467;-86
2021/10/20 06:50:43;;;;;;;4.95;2.90;;;;;;;14.34;100.00;99213.85;4372103;80;28505;-81
2021/10/20 06:56:51;;;;;;;6.33;3.00;;;;;;;14.62;100.00;99200.37;4334362;80;28520;-81
2021/10/20 07:02:52;;;;;;;4.28;2.70;;;;;;;14.87;100.00;99199.84;4437371;78;28574;-81
2021/10/20 07:08:55;;;;;;;5.45;2.50;;;;;;;15.01;100.00;99193.48;4420980;78;28569;-81
2021/10/20 07:14:58;;;;;;;3.17;2.17;;;;;;;15.07;100.00;99185.42;4381050;80;28464;-80
2021/10/20 07:21:01;;;;;;;3.67;2.00;;;;;;;15.18;100.00;99188.50;4365108;80;28468;-80
2021/10/20 07:27:06;;;;;;;3.25;1.85;;;;;;;15.41;100.00;99178.37;4405135;79;28508;-80
2021/10/20 07:33:07;;;;;;;4.10;2.17;;;;;;;15.69;100.00;99181.27;4353950;80;28541;-80
2021/10/20 07:39:09;;;;;;;4.12;2.12;;;;;;;16.05;100.00;99186.11;4348434;80;28513;-80
2021/10/20 07:45:15;;;;;;;4.50;2.08;;;;;;;16.26;100.00;99184.84;4389921;80;28459;-81
2021/10/20 07:51:16;;;;;;;3.75;2.37;;;;;;;16.47;100.00;99190.34;4446279;79;28544;-83
2021/10/20 07:57:17;;;;;;;4.33;1.98;;;;;;;16.66;100.00;99177.09;4356142;80;28488;-79
2021/10/20 08:03:19;;;;;;;4.53;2.47;;;;;;;16.86;100.00;99173.05;4361315;80;28519;-80
2021/10/20 08:09:20;;;;;;;3.58;1.90;;;;;;;17.14;100.00;99164.70;4350878;80;28524;-81
2021/10/20 08:15:24;;;;;;;2.75;2.00;;;;;;;17.33;100.00;99166.33;4361583;80;28440;-81
2021/10/20 08:21:25;;;;;;;3.50;2.10;;;;;;;17.58;100.00;99166.57;4347877;80;28512;-82
2021/10/20 08:27:27;;;;;;;3.47;1.85;;;;;;;17.75;100.00;99153.46;4354616;80;28459;-80
2021/10/20 08:33:28;;;;;;;3.87;2.08;;;;;;;17.91;100.00;99147.46;4373412;80;28787;-81
2021/10/20 08:39:30;;;;;;;5.70;2.60;;;;;;;18.08;100.00;99142.24;4354632;81;28432;-79
2021/10/20 08:45:32;;;;;;;3.87;2.20;;;;;;;18.28;100.00;99131.83;4363362;80;28507;-78
2021/10/20 08:51:34;;;;;;;3.83;2.27;;;;;;;18.41;100.00;99129.58;4360374;81;28494;-79
2021/10/20 08:57:35;;;;;;;3.60;2.20;;;;;;;18.47;98.49;99129.80;4356913;80;28510;-78
2021/10/20 09:03:37;;;;;;;3.95;2.10;;;;;;;18.58;96.69;99136.80;4366800;80;28436;-78
2021/10/20 09:09:38;;;;;;;4.42;2.45;;;;;;;18.64;97.54;99128.05;4366704;80;28527;-79
2021/10/20 09:15:41;;;;;;;3.55;2.12;;;;;;;18.76;96.06;99117.64;4343245;80;28533;-81
2021/10/20 09:21:58;;;;;;;4.30;2.30;;;;;;;18.81;92.90;99112.70;4350512;80;28466;-85
2021/10/20 09:28:02;;;;;;;;;;;;;;;18.89;90.41;99117.52;4359469;80;28441;-80
2021/10/20 09:34:10;;;;;;;4.30;1.90;;;;;;;18.93;89.88;99113.15;4356296;81;20485;-84
2021/10/20 09:40:14;;;;;;;4.58;2.50;;;;;;;19.06;92.07;99110.89;4371315;80;28475;-83
2021/10/20 09:46:15;;;;;;;4.10;2.37;;;;;;;19.12;90.79;99104.84;4361561;80;28504;-83
2021/10/20 09:52:23;;;;;;;7.97;2.50;;;;;;;19.26;90.03;99091.36;4370514;80;28456;-85
2021/10/20 09:58:25;;;;;;;7.03;2.50;;;;;;;19.31;90.72;99087.21;4369029;80;28503;-85
2021/10/20 10:04:27;;;;;;;3.92;2.27;;;;;;;19.35;88.01;99080.10;4358550;80;28515;-84
2021/10/20 10:10:29;;;;;;;3.77;2.27;;;;;;;19.32;90.40;99076.59;4375504;80;28498;-84
2021/10/20 10:16:33;;;;;;;5.10;2.27;;;;;;;19.17;88.05;99070.19;4408246;80;28458;-84
2021/10/20 10:22:54;;;;;;;4.78;2.30;;;;;;;19.08;89.31;99055.55;4412719;79;28456;-83
2021/10/20 10:29:12;;;;;;;4.33;2.70;;;;;;;19.03;90.84;99052.89;4409811;79;28539;-83
2021/10/20 10:35:14;;;;;;;4.03;2.27;;;;;;;18.95;89.72;99040.11;4396487;79;28538;-83
2021/10/20 10:41:35;;;;;;;5.47;2.00;;;;;;;19.03;89.51;99019.63;4396470;79;28537;-83
2021/10/20 10:47:56;;;;;;;2.80;2.00;;;;;;;19.20;87.42;99007.48;4401969;79;28474;-82
2021/10/20 10:53:59;;;;;;;8.40;2.37;;;;;;;19.33;84.01;99003.27;4407637;79;28473;-80
2021/10/20 11:00:21;;;;;;;3.55;2.25;;;;;;;19.51;80.98;98990.77;4403486;79;28480;-80
2021/10/20 11:06:23;;;;;;;5.30;2.35;;;;;;;19.68;81.27;98983.46;4403925;79;28440;-80
2021/10/20 11:12:25;;;;;;;4.37;2.40;;;;;;;19.92;78.40;98976.59;4387032;79;28475;-81
2021/10/20 11:18:26;;;;;;;2.85;2.12;;;;;;;20.04;76.74;98948.86;4319533;81;28470;-80
2021/10/20 11:24:28;;;;;;;4.12;2.40;;;;;;;20.16;73.32;98933.41;4382381;80;28519;-78
2021/10/20 11:30:32;;;;;;;5.28;2.12;;;;;;;20.31;71.53;98935.65;4297434;81;28504;-77
2021/10/20 11:36:44;;;;;;;4.33;2.30;;;;;;;20.35;69.37;98929.84;4386313;80;28552;-77
2021/10/20 11:42:45;;;;;;;4.05;1.90;;;;;;;20.48;70.49;98911.30;4370750;80;28463;-77
2021/10/20 11:48:47;;;;;;;2.85;2.00;;;;;;;20.53;67.57;98910.97;4340490;81;28492;-77
2021/10/20 11:54:49;;;;;;;3.65;2.25;;;;;;;20.56;66.50;98900.23;4373973;80;28450;-78
2021/10/20 12:00:53;;;;;;;4.87;1.95;;;;;;;20.58;67.58;98887.66;4396749;80;28465;-78
2021/10/20 12:07:02;;;;;;;3.35;2.25;;;;;;;20.54;64.72;98880.61;4392237;80;28528;-76
2021/10/20 12:13:07;;;;;;;3.12;1.85;;;;;;;20.70;65.84;98873.51;4390586;79;28489;-79
2021/10/20 12:19:15;;;;;;;3.35;2.10;;;;;;;20.69;66.50;98874.05;4378645;79;28459;-78
2021/10/20 12:25:13;;;;;;;4.33;2.15;;;;;;;20.70;64.87;98849.72;4408590;79;28909;-78
2021/10/20 12:31:18;;;;;;;3.02;2.00;;;;;;;20.72;63.77;98844.79;4380118;79;28478;-78
2021/10/20 12:37:26;;;;;;;2.62;1.72;;;;;;;20.75;64.24;98835.16;4333005;81;28461;-79
2021/10/20 12:43:28;;;;;;;5.30;2.10;;;;;;;20.77;66.05;98821.99;4358334;81;28497;-81
2021/10/20 12:49:35;;;;;;;3.00;1.90;;;;;;;20.80;62.80;98814.58;4403957;79;28500;-80
2021/10/20 12:55:40;;;;;;;4.12;2.20;;;;;;;20.79;65.16;98803.94;4357953;80;28521;-80
2021/10/20 13:01:42;;;;;;;4.12;1.65;;;;;;;20.79;64.02;98784.82;4373452;80;28500;-79
2021/10/20 13:07:45;;;;;;;4.70;1.67;;;;;;;20.71;65.58;98778.16;4377888;80;28490;-80
2021/10/20 13:13:46;;;;;;;3.70;2.10;;;;;;;20.75;64.89;98771.78;4308639;80;28464;-84
2021/10/20 13:19:48;;;;;;;2.80;1.98;;;;;;;20.86;64.19;98774.33;4417545;79;28434;-80
2021/10/20 13:25:49;;;;;;;3.42;1.95;;;;;;;20.88;63.64;98764.72;4379811;80;28567;-81
2021/10/20 13:31:50;;;;;;;4.50;2.35;;;;;;;20.81;64.42;98761.55;4366983;80;28475;-81
2021/10/20 13:37:52;;;;;;;3.45;2.00;;;;;;;20.70;65.23;98754.12;4370610;81;28486;-81
2021/10/20 13:43:53;;;;;;;5.00;2.10;;;;;;;20.55;63.44;98747.05;4358902;81;28486;-81
2021/10/20 13:49:55;;;;;;;6.03;2.20;;;;;;;20.36;62.76;98740.89;4381879;80;28526;-79
2021/10/20 13:55:58;;;;;;;3.17;1.85;;;;;;;20.19;62.44;98745.05;4363289;80;28499;-80
2021/10/20 14:01:59;;;;;;;4.53;1.90;;;;;;;20.06;62.78;98737.10;4350875;81;28482;-80
2021/10/20 14:08:00;;;;;;;3.87;2.00;;;;;;;19.91;62.97;98723.98;4399326;80;28432;-80
2021/10/20 14:14:02;;;;;;;5.15;2.10;;;;;;;19.78;64.25;98708.38;4280569;82;28484;-81
2021/10/20 14:20:07;;;;;;;4.03;2.05;;;;;;;19.77;63.82;98694.49;4254698;82;28509;-83
2021/10/20 14:26:10;;;;;;;4.12;1.95;;;;;;;19.72;64.95;98694.59;4263784;82;28550;-82
2021/10/20 14:32:12;;;;;;;5.47;2.30;;;;;;;19.68;66.47;98689.47;4278432;82;28457;-80
2021/10/20 14:38:15;;;;;;;6.60;2.60;;;;;;;19.59;65.69;98695.64;4284926;82;28492;-80
2021/10/20 14:44:19;;;;;;;6.08;2.95;;;;;;;19.50;65.31;98687.32;4263482;82;28494;-81
2021/10/20 14:50:20;;;;;;;4.25;2.08;;;;;;;19.38;64.93;98685.62;4264322;82;28515;-82
2021/10/20 14:56:22;;;;;;;3.83;1.90;;;;;;;19.21;65.32;98682.92;4272349;82;28445;-81
2021/10/20 15:02:23;;;;;;;3.33;1.90;;;;;;;19.07;64.69;98686.95;4298014;82;28499;-82
2021/10/20 15:08:25;;;;;;;4.05;2.10;;;;;;;18.90;63.57;98669.74;4268361;82;28487;-81
2021/10/20 15:14:26;;;;;;;4.08;2.10;;;;;;;18.70;63.79;98670.83;4283289;81;28547;-81
2021/10/20 15:20:41;;;;;;;4.78;2.05;;;;;;;18.45;63.52;98653.77;4298781;82;28459;-83
2021/10/20 15:26:33;;;;;;;4.10;2.25;;;;;;;18.22;64.46;98658.95;4287016;82;28513;-82
2021/10/20 15:32:35;;;;;;;4.03;2.00;;;;;;;17.98;65.71;98650.78;4273276;82;28506;-85
2021/10/20 15:38:37;;;;;;;5.05;2.45;;;;;;;17.68;68.51;98635.86;4286202;82;28479;-85
2021/10/20 15:44:39;;;;;;;4.00;2.52;;;;;;;17.46;67.93;98617.88;4292540;82;28453;-84
2021/10/20 15:50:47;;;;;;;3.60;2.60;;;;;;;17.27;67.76;98626.74;4300816;82;28450;-85
2021/10/20 15:56:49;;;;;;;4.90;2.40;;;;;;;17.10;67.27;98622.56;4266289;82;28433;-85
2021/10/20 16:02:50;;;;;;;5.92;2.30;;;;;;;16.98;67.31;98625.60;4300815;82;28498;-85
2021/10/20 16:08:55;;;;;;;4.75;2.62;;;;;;;16.81;69.24;98624.65;4300176;82;28533;-84
2021/10/20 16:14:57;;;;;;;5.97;2.83;;;;;;;16.67;72.72;98610.10;4354266;80;28497;-87
2021/10/20 16:20:59;;;;;;;6.85;3.10;;;;;;;16.48;74.15;98610.76;4436936;78;28464;-87
2021/10/20 16:27:01;;;;;;;6.10;2.90;;;;;;;16.28;75.81;98594.04;4340558;80;28460;-84
2021/10/20 16:33:04;;;;;;;7.65;3.17;;;;;;;16.24;71.22;98590.27;4346374;80;28536;-83
2021/10/20 16:39:06;;;;;;;7.15;3.33;;;;;;;16.15;72.23;98596.84;4352231;81;28548;-87
2021/10/20 16:45:08;;;;;;;8.38;4.03;;;;;;;16.07;70.05;98598.20;4326689;80;28508;-87
2021/10/20 16:51:11;;;;;;;6.72;3.70;;;;;;;15.99;71.72;98590.67;4409726;78;28503;-86
2021/10/20 16:57:13;;;;;;;6.40;3.62;;;;;;;15.92;70.58;98584.17;4353261;79;28474;-85
2021/10/20 17:03:14;;;;;;;7.78;3.62;;;;;;;15.79;70.77;98586.93;4375139;80;28501;-85
2021/10/20 17:09:16;;;;;;;6.53;3.60;;;;;;;15.69;71.66;98584.25;4388166;79;28571;-84
2021/10/20 17:15:21;;;;;;;8.25;4.00;;;;;;;15.57;70.32;98570.47;4392239;79;28493;-83
2021/10/20 17:21:24;;;;;;;8.80;3.90;;;;;;;15.38;77.11;98562.66;4388453;81;28495;-82
2021/10/20 17:27:25;;;;;;;6.58;3.58;;;;;;;15.11;82.33;98566.49;4446776;78;28536;-87
2021/10/20 17:33:27;;;;;;;9.78;4.17;;;;;;;14.97;85.85;98553.52;4348874;80;28510;-86
2021/10/20 17:39:29;;;;;;;10.50;5.97;;;;;;;14.82;88.99;98543.52;4447207;78;28459;-88
2021/10/20 17:45:30;;;;;;;10.60;4.25;;;;;;;14.72;84.09;98534.02;4433339;78;28469;-84
2021/10/20 17:51:31;;;;;;;7.22;4.20;;;;;;;14.62;84.61;98545.63;4438532;78;28499;-84
2021/10/20 17:57:34;;;;;;;8.08;4.45;;;;;;;14.46;87.73;98542.92;4353182;80;28500;-83
2021/10/20 18:03:36;;;;;;;10.65;4.78;;;;;;;14.47;79.77;98567.54;4435962;78;28521;-84
2021/10/20 18:09:40;;;;;;;15.32;5.70;;;;;;;14.50;79.48;98556.73;4416666;79;28534;-89
2021/10/20 18:15:41;;;;;;;9.45;4.80;;;;;;;14.42;87.68;98557.25;4365882;80;28448;-82
2021/10/20 18:21:42;;;;;;;11.03;5.42;;;;;;;14.21;92.19;98558.56;4334029;80;28464;-85
2021/10/20 18:27:50;;;;;;;10.98;5.12;;;;;;;14.18;89.39;98560.46;4326646;81;28560;-84
2021/10/20 18:33:54;;;;;;;9.33;4.40;;;;;;;13.96;97.77;98555.25;4321048;81;28455;-81
2021/10/20 18:39:59;;;;;;;10.18;4.50;;;;;;;13.77;98.90;98555.19;4315950;81;28546;-86
2021/10/20 18:46:00;;;;;;;8.35;4.58;;;;;;;13.52;100.00;98551.84;4293474;81;28481;-83
2021/10/20 18:52:01;;;;;;;12.53;6.95;;;;;;;13.41;100.00;98546.88;4331899;81;28506;-85
2021/10/20 18:58:03;;;;;;;8.75;4.87;;;;;;;13.41;100.00;98552.83;4352570;81;28448;-84
2021/10/20 19:04:04;;;;;;;11.90;5.40;;;;;;;13.44;100.00;98545.55;4338452;80;28478;-82
2021/10/20 19:10:12;;;;;;;10.40;5.72;;;;;;;13.44;100.00;98537.45;4321076;81;28514;-87
2021/10/20 19:16:13;;;;;;;13.17;4.60;;;;;;;13.09;100.00;98538.32;4389676;79;28494;-82
2021/10/20 19:22:15;;;;;;;15.90;6.87;;;;;;;12.90;100.00;98508.25;4366527;79;28487;-83
2021/10/20 19:28:17;;;;;;;11.03;5.10;;;;;;;12.77;100.00;98513.03;4366853;79;28537;-83
2021/10/20 19:34:19;;;;;;;11.48;4.92;;;;;;;12.54;100.00;98506.09;4358465;79;28442;-83
2021/10/20 19:40:21;;;;;;;10.75;4.72;;;;;;;12.51;100.00;98503.92;4374260;81;28642;-82
2021/10/20 19:46:23;;;;;;;11.75;5.15;;;;;;;12.38;100.00;98493.81;4391281;81;28482;-83
2021/10/20 19:52:25;;;;;;;13.53;5.33;;;;;;;12.30;100.00;98498.87;4349238;79;28515;-82
2021/10/20 19:58:26;;;;;;;13.72;6.78;;;;;;;12.24;100.00;98497.50;4385733;79;28507;-82
2021/10/20 20:04:28;;;;;;;11.73;6.25;;;;;;;12.23;100.00;98501.23;4391348;80;28444;-80
2021/10/20 20:10:30;;;;;;;12.28;5.90;;;;;;;12.20;100.00;98498.26;4394390;79;28490;-79
2021/10/20 20:16:34;;;;;;;13.22;7.00;;;;;;;11.89;100.00;98513.53;4366923;79;28552;-77
2021/10/20 20:22:36;;;;;;;12.88;7.05;;;;;;;11.99;100.00;98505.56;4379229;81;28514;-80
2021/10/20 20:28:37;;;;;;;10.18;5.22;;;;;;;12.05;100.00;98502.96;4374349;79;28475;-81
2021/10/20 20:34:40;;;;;;;13.20;5.47;;;;;;;11.61;100.00;98532.89;4371827;79;28519;-79
2021/10/20 20:40:42;;;;;;;12.95;5.80;;;;;;;11.91;100.00;98511.39;4388922;79;28491;-79
2021/10/20 20:46:43;;;;;;;13.03;5.80;;;;;;;11.63;100.00;98506.52;4364328;81;28474;-81
2021/10/20 20:52:45;;;;;;;13.85;6.30;;;;;;;11.58;100.00;98507.27;4372867;80;28503;-79
2021/10/20 20:58:46;;;;;;;12.98;5.78;;;;;;;11.48;100.00;98507.14;4375953;80;28529;-77
2021/10/20 21:04:47;;;;;;;9.83;5.17;;;;;;;11.40;100.00;98500.84;4362340;81;28476;-80
2021/10/20 21:10:49;;;;;;;10.28;5.58;;;;;;;11.29;100.00;98493.16;4354564;81;28467;-80
2021/10/20 21:16:50;;;;;;;10.08;5.92;;;;;;;11.29;100.00;98487.25;4302311;81;28445;-79
2021/10/20 21:22:51;;;;;;;10.03;5.08;;;;;;;11.28;100.00;98499.60;4269278;82;28526;-77
2021/10/20 21:28:54;;;;;;;13.32;5.60;;;;;;;11.41;100.00;98492.53;4345298;81;28540;-79
2021/10/20 21:34:56;;;;;;;8.80;5.08;;;;;;;11.25;100.00;98487.48;4304508;81;28515;-77
2021/10/20 21:40:57;;;;;;;12.82;5.05;;;;;;;11.30;100.00;98462.52;4309189;81;28498;-81
2021/10/20 21:46:58;;;;;;;10.00;4.65;;;;;;;11.28;100.00;98449.30;4369719;80;28464;-77
2021/10/20 21:53:00;;;;;;;11.22;5.40;;;;;;;11.29;100.00;98426.70;4286607;83;28479;-77
2021/10/20 21:59:01;;;;;;;11.38;5.30;;;;;;;11.35;100.00;98415.98;4329293;81;28502;-77
2021/10/20 22:05:03;;;;;;;12.23;5.35;;;;;;;11.39;100.00;98417.92;4285920;83;28475;-78
2021/10/20 22:11:05;;;;;;;7.75;4.22;;;;;;;11.61;100.00;98402.30;4303180;81;28537;-78
2021/10/20 22:17:07;;;;;;;8.40;4.00;;;;;;;11.99;100.00;98399.14;4310974;82;28546;-78
2021/10/20 22:23:10;;;;;;;10.60;5.58;;;;;;;12.27;100.00;98401.81;4394873;81;28537;-79
2021/10/20 22:29:12;;;;;;;8.23;5.12;;;;;;;12.26;100.00;98390.23;4342189;81;28472;-78
2021/10/20 22:35:13;;;;;;;10.65;5.20;;;;;;;12.38;100.00;98390.03;4293319;80;28498;-77
2021/10/20 22:41:16;;;;;;;10.20;5.05;;;;;;;12.20;100.00;98379.69;4327668;81;28564;-78
2021/10/20 22:47:17;;;;;;;9.05;5.37;;;;;;;12.17;100.00;98374.27;4326972;81;28456;-77
2021/10/20 22:53:19;;;;;;;14.33;5.65;;;;;;;12.06;100.00;98372.56;4330813;82;28511;-79
2021/10/20 22:59:20;;;;;;;11.38;5.00;;;;;;;12.06;100.00;98352.36;4286710;82;28501;-77
2021/10/20 23:05:22;;;;;;;7.40;4.70;;;;;;;11.92;100.00;98333.09;4293910;82;28576;-77
2021/10/20 23:11:23;;;;;;;10.25;5.12;;;;;;;11.79;100.00;98324.89;4350991;81;28530;-77
2021/10/20 23:17:25;;;;;;;10.00;5.40;;;;;;;11.67;100.00;98325.08;4366755;81;28460;-76
2021/10/20 23:23:27;;;;;;;8.48;5.17;;;;;;;11.69;100.00;98310.27;4343800;81;28486;-76
2021/10/20 23:29:28;;;;;;;8.53;5.00;;;;;;;11.56;100.00;98287.82;4339597;81;28551;-76
2021/10/20 23:35:30;;;;;;;11.28;5.37;;;;;;;11.38;100.00;98266.93;4349455;81;28451;-77
2021/10/20 23:41:32;;;;;;;8.18;4.65;;;;;;;11.43;100.00;98262.95;4328369;81;28460;-76
2021/10/20 23:47:33;;;;;;;10.03;5.08;;;;;;;11.11;100.00;98252.15;4354317;81;28480;-78
2021/10/20 23:53:35;;;;;;;9.75;5.60;;;;;;;11.07;100.00;98260.45;4321437;81;28471;-78
2021/10/20 23:59:36;;;;;;;8.30;5.10;;;;;;;11.19;100.00;98254.39;4366876;81;28474;-78
